createdAt,value
2022-12-05T00:01:14.743Z,2.65
2022-12-05T00:03:43.900Z,2.62
2022-12-05T00:06:11.562Z,2.65
2022-12-05T00:08:39.481Z,2.63
2022-12-05T00:11:12.485Z,2.64
2022-12-05T00:13:41.015Z,2.71
2022-12-05T00:16:10.408Z,2.64
2022-12-05T00:18:38.029Z,2.61
2022-12-05T00:21:07.780Z,2.56
2022-12-05T00:23:35.494Z,2.66
2022-12-05T00:26:04.175Z,2.56
2022-12-05T00:28:31.952Z,2.68
2022-12-05T00:31:02.034Z,2.65
2022-12-05T00:33:29.581Z,2.72
2022-12-05T00:35:57.135Z,2.71
2022-12-05T00:38:26.053Z,2.72
2022-12-05T00:40:53.654Z,2.74
2022-12-05T00:43:21.229Z,2.72
2022-12-05T00:45:48.881Z,2.76
2022-12-05T00:48:16.529Z,2.79
2022-12-05T00:50:44.093Z,2.72
2022-12-05T00:53:11.694Z,2.76
2022-12-05T00:55:40.751Z,2.72
2022-12-05T00:58:08.319Z,2.72
2022-12-05T01:00:35.938Z,2.67
2022-12-05T01:03:03.556Z,2.58
2022-12-05T01:05:31.247Z,2.64
2022-12-05T01:07:58.912Z,2.71
2022-12-05T01:10:26.594Z,2.79
2022-12-05T01:12:55.501Z,2.84
2022-12-05T01:15:23.251Z,2.67
2022-12-05T01:17:50.802Z,2.55
2022-12-05T01:20:18.797Z,2.63
2022-12-05T01:22:46.404Z,2.63
2022-12-05T01:25:13.996Z,2.65
2022-12-05T01:27:41.721Z,2.55
2022-12-05T01:30:11.703Z,2.50
2022-12-05T01:32:39.371Z,2.57
2022-12-05T01:35:08.080Z,2.58
2022-12-05T01:37:35.816Z,2.48
2022-12-05T01:40:04.445Z,2.45
2022-12-05T01:42:32.163Z,2.44
2022-12-05T01:45:03.453Z,2.40
2022-12-05T01:47:34.185Z,2.37
2022-12-05T01:50:02.164Z,2.34
2022-12-05T01:52:31.271Z,2.36
2022-12-05T01:55:04.656Z,2.23
2022-12-05T01:57:32.629Z,2.11
2022-12-05T02:00:04.092Z,2.12
2022-12-05T02:02:33.659Z,2.10
2022-12-05T02:05:05.881Z,2.08
2022-12-05T02:07:34.138Z,2.06
2022-12-05T02:10:01.736Z,2.00
2022-12-05T02:12:29.464Z,2.08
2022-12-05T02:15:07.516Z,2.01
2022-12-05T02:17:45.137Z,1.99
2022-12-05T02:20:42.532Z,1.96
2022-12-05T02:23:26.558Z,1.94
2022-12-05T02:26:08.036Z,1.91
2022-12-05T02:28:48.400Z,1.90
2022-12-05T02:31:19.242Z,1.83
2022-12-05T02:33:49.166Z,1.90
2022-12-05T02:36:19.451Z,1.88
2022-12-05T02:38:51.769Z,1.87
2022-12-05T02:41:22.987Z,1.82
2022-12-05T02:43:54.371Z,1.83
2022-12-05T02:46:25.316Z,1.86
2022-12-05T02:48:56.107Z,1.83
2022-12-05T02:51:25.244Z,1.81
2022-12-05T02:53:53.044Z,1.79
2022-12-05T02:56:20.790Z,1.81
2022-12-05T02:58:53.668Z,1.73
2022-12-05T03:01:24.719Z,1.77
2022-12-05T03:03:52.455Z,1.75
2022-12-05T03:06:23.085Z,1.76
2022-12-05T03:08:53.497Z,1.77
2022-12-05T03:11:21.234Z,1.80
2022-12-05T03:13:52.117Z,1.78
2022-12-05T03:16:22.049Z,1.82
2022-12-05T03:18:55.234Z,1.85
2022-12-05T03:21:28.441Z,1.85
2022-12-05T03:23:57.875Z,1.86
2022-12-05T03:26:38.180Z,1.82
2022-12-05T03:29:19.318Z,1.83
2022-12-05T03:31:51.415Z,1.80
2022-12-05T03:34:24.086Z,1.79
2022-12-05T03:36:53.966Z,1.78
2022-12-05T03:39:25.131Z,1.79
2022-12-05T03:41:58.781Z,1.77
2022-12-05T03:44:32.473Z,1.74
2022-12-05T03:47:02.516Z,1.78
2022-12-05T03:49:36.481Z,1.79
2022-12-05T03:52:10.221Z,1.76
2022-12-05T03:54:41.623Z,1.77
2022-12-05T03:57:12.700Z,1.80
2022-12-05T03:59:43.463Z,1.79
2022-12-05T04:02:14.957Z,1.76
2022-12-05T04:04:50.241Z,1.77
2022-12-05T04:07:18.510Z,1.82
2022-12-05T04:09:48.301Z,1.73
2022-12-05T04:12:20.232Z,1.82
2022-12-05T04:14:49.983Z,1.78
2022-12-05T04:17:20.771Z,1.80
2022-12-05T04:20:10.052Z,1.68
2022-12-05T04:22:39.277Z,1.76
2022-12-05T04:25:27.761Z,1.72
2022-12-05T04:27:59.323Z,1.76
2022-12-05T04:30:31.651Z,1.78
2022-12-05T04:33:02.443Z,1.81
2022-12-05T04:35:36.386Z,1.75
2022-12-05T04:38:06.807Z,1.75
2022-12-05T04:40:38.404Z,1.68
2022-12-05T04:43:06.670Z,1.73
2022-12-05T04:45:34.723Z,1.71
2022-12-05T04:48:04.124Z,1.71
2022-12-05T04:50:34.667Z,1.69
2022-12-05T04:53:03.199Z,1.72
2022-12-05T04:55:32.790Z,1.75
2022-12-05T04:58:05.619Z,1.77
2022-12-05T05:00:35.856Z,1.75
2022-12-05T05:03:08.177Z,1.69
2022-12-05T05:05:38.656Z,1.65
2022-12-05T05:08:06.421Z,1.64
2022-12-05T05:10:36.658Z,1.64
2022-12-05T05:13:04.314Z,1.64
2022-12-05T05:15:31.922Z,1.65
2022-12-05T05:17:59.549Z,1.61
2022-12-05T05:20:27.411Z,1.61
2022-12-05T05:22:57.614Z,1.58
2022-12-05T05:25:25.941Z,1.59
2022-12-05T05:27:55.677Z,1.64
2022-12-05T05:30:24.425Z,1.63
2022-12-05T05:32:52.089Z,1.56
2022-12-05T05:35:20.293Z,1.59
2022-12-05T05:37:47.997Z,1.57
2022-12-05T05:40:17.077Z,1.65
2022-12-05T05:42:45.181Z,1.65
2022-12-05T05:45:13.682Z,1.63
2022-12-05T05:47:41.421Z,1.63
2022-12-05T05:50:10.408Z,1.62
2022-12-05T05:52:39.100Z,1.60
2022-12-05T05:55:08.954Z,1.58
2022-12-05T05:57:38.306Z,1.64
2022-12-05T06:00:07.994Z,1.69
2022-12-05T06:02:36.102Z,1.69
2022-12-05T06:05:04.707Z,1.65
2022-12-05T06:07:32.365Z,1.66
2022-12-05T06:10:00.364Z,1.64
2022-12-05T06:12:28.301Z,1.65
2022-12-05T06:14:57.228Z,1.58
2022-12-05T06:17:24.848Z,1.67
2022-12-05T06:19:52.455Z,1.66
2022-12-05T06:22:20.025Z,1.68
2022-12-05T06:24:47.568Z,1.78
2022-12-05T06:27:15.162Z,1.85
2022-12-05T06:29:42.906Z,1.81
2022-12-05T06:32:11.828Z,1.86
2022-12-05T06:34:39.516Z,1.89
2022-12-05T06:37:07.081Z,1.73
2022-12-05T06:39:34.889Z,1.68
2022-12-05T06:42:02.497Z,1.73
2022-12-05T06:44:30.063Z,1.78
2022-12-05T06:46:57.740Z,1.66
2022-12-05T06:49:36.390Z,1.62
2022-12-05T06:52:05.708Z,1.54
2022-12-05T06:54:33.266Z,1.58
2022-12-05T06:57:00.847Z,1.67
2022-12-05T06:59:28.950Z,1.64
2022-12-05T07:01:55.579Z,1.58
2022-12-05T07:04:24.620Z,1.55
2022-12-05T07:06:55.519Z,1.63
2022-12-05T07:09:45.063Z,1.54
2022-12-05T07:12:13.224Z,1.58
2022-12-05T07:14:49.434Z,1.59
2022-12-05T07:17:18.040Z,1.51
2022-12-05T07:19:45.876Z,1.49
2022-12-05T07:22:16.090Z,1.51
2022-12-05T07:24:44.185Z,1.35
2022-12-05T07:27:11.775Z,1.30
2022-12-05T07:29:39.382Z,1.28
2022-12-05T07:32:07.431Z,1.23
2022-12-05T07:34:35.082Z,1.22
2022-12-05T07:37:02.790Z,1.16
2022-12-05T07:39:31.878Z,1.26
2022-12-05T07:41:59.473Z,1.30
2022-12-05T07:44:27.209Z,1.13
2022-12-05T07:46:54.988Z,1.07
2022-12-05T07:49:22.598Z,1.11
2022-12-05T07:51:50.182Z,1.11
2022-12-05T07:54:17.831Z,1.05
2022-12-05T07:56:48.041Z,1.05
2022-12-05T07:59:15.908Z,1.01
2022-12-05T08:01:43.569Z,1.08
2022-12-05T08:04:15.275Z,1.16
2022-12-05T08:06:43.567Z,1.06
2022-12-05T08:09:11.160Z,0.94
2022-12-05T08:11:38.747Z,0.90
2022-12-05T08:14:08.062Z,0.90
2022-12-05T08:16:35.704Z,0.95
2022-12-05T08:19:05.402Z,0.90
2022-12-05T08:21:33.490Z,0.85
2022-12-05T08:24:01.207Z,0.88
2022-12-05T08:26:30.387Z,0.89
2022-12-05T08:29:00.154Z,0.85
2022-12-05T08:31:30.366Z,0.90
2022-12-05T08:33:59.745Z,0.81
2022-12-05T08:36:28.154Z,0.86
2022-12-05T08:38:57.611Z,0.80
2022-12-05T08:41:28.513Z,0.77
2022-12-05T08:43:56.727Z,0.78
2022-12-05T08:46:24.503Z,0.82
2022-12-05T08:48:53.800Z,0.82
2022-12-05T08:51:21.407Z,0.84
2022-12-05T08:53:48.972Z,0.78
2022-12-05T08:56:16.532Z,0.82
2022-12-05T08:58:45.042Z,0.84
2022-12-05T09:01:14.745Z,0.91
2022-12-05T09:03:47.618Z,0.92
2022-12-05T09:06:18.896Z,0.84
2022-12-05T09:08:47.375Z,0.91
2022-12-05T09:11:16.761Z,0.95
2022-12-05T09:13:45.283Z,1.02
2022-12-05T09:16:14.197Z,1.01
2022-12-05T09:18:42.009Z,0.88
2022-12-05T09:21:11.303Z,0.89
2022-12-05T09:23:40.584Z,0.97
2022-12-05T09:26:11.826Z,1.00
2022-12-05T09:28:40.132Z,0.93
2022-12-05T09:31:13.089Z,1.06
2022-12-05T09:33:40.746Z,0.99
2022-12-05T09:36:10.509Z,1.02
2022-12-05T09:38:38.086Z,1.06
2022-12-05T09:41:13.399Z,1.03
2022-12-05T09:43:47.339Z,1.08
2022-12-05T09:46:23.534Z,0.99
2022-12-05T09:48:51.997Z,1.10
2022-12-05T09:51:19.699Z,1.15
2022-12-05T09:53:47.484Z,1.24
2022-12-05T09:56:22.595Z,1.23
2022-12-05T09:58:51.300Z,1.33
2022-12-05T10:01:27.279Z,1.36
2022-12-05T10:04:23.669Z,1.43
2022-12-05T10:06:57.666Z,1.64
2022-12-05T10:09:38.803Z,1.63
2022-12-05T10:12:15.754Z,1.47
2022-12-05T10:14:50.144Z,1.63
2022-12-05T10:17:22.456Z,1.52
2022-12-05T10:19:51.021Z,1.51
2022-12-05T10:22:21.621Z,1.39
2022-12-05T10:24:50.973Z,1.48
2022-12-05T10:27:22.549Z,1.51
2022-12-05T10:29:55.230Z,1.53
2022-12-05T10:32:26.912Z,1.54
2022-12-05T10:34:56.825Z,1.80
2022-12-05T10:37:25.555Z,1.87
2022-12-05T10:39:55.350Z,1.68
2022-12-05T10:42:26.743Z,1.64
2022-12-05T10:44:58.400Z,1.48
2022-12-05T10:47:26.641Z,1.51
2022-12-05T10:49:55.482Z,1.51
2022-12-05T10:52:23.045Z,1.61
2022-12-05T10:54:56.310Z,1.60
2022-12-05T10:57:27.205Z,1.43
2022-12-05T10:59:56.564Z,1.55
2022-12-05T11:02:27.568Z,1.34
2022-12-05T11:04:55.613Z,1.26
2022-12-05T11:07:27.753Z,1.19
2022-12-05T11:09:55.463Z,1.25
2022-12-05T11:12:27.031Z,1.20
2022-12-05T11:14:57.607Z,1.25
2022-12-05T11:17:27.779Z,1.30
2022-12-05T11:19:55.437Z,1.08
2022-12-05T11:22:31.909Z,1.09
2022-12-05T11:24:59.946Z,1.04
2022-12-05T11:27:31.624Z,1.08
2022-12-05T11:30:02.055Z,1.05
2022-12-05T11:32:31.835Z,1.06
2022-12-05T11:35:24.177Z,1.07
2022-12-05T11:37:55.564Z,1.00
2022-12-05T11:40:32.707Z,1.02
2022-12-05T11:43:27.317Z,1.00
2022-12-05T11:46:02.165Z,0.89
2022-12-05T11:48:50.953Z,1.03
2022-12-05T11:51:30.173Z,1.03
2022-12-05T11:54:11.274Z,1.09
2022-12-05T11:56:40.406Z,1.38
2022-12-05T11:59:23.676Z,1.52
2022-12-05T12:01:57.292Z,1.56
2022-12-05T12:04:33.134Z,1.70
2022-12-05T12:07:16.530Z,1.51
2022-12-05T12:09:50.926Z,1.65
2022-12-05T12:12:23.473Z,1.57
2022-12-05T12:14:59.850Z,1.65
2022-12-05T12:17:30.467Z,1.46
2022-12-05T12:20:13.187Z,1.47
2022-12-05T12:22:51.761Z,1.58
2022-12-05T12:25:26.164Z,1.55
2022-12-05T12:28:04.494Z,1.37
2022-12-05T12:30:44.458Z,1.28
2022-12-05T12:33:16.346Z,1.33
2022-12-05T12:35:49.333Z,1.22
2022-12-05T12:38:40.510Z,1.24
2022-12-05T12:41:15.478Z,1.19
2022-12-05T12:43:53.957Z,1.17
2022-12-05T12:46:43.980Z,1.17
2022-12-05T12:49:34.327Z,1.35
2022-12-05T12:52:03.897Z,1.38
2022-12-05T12:57:40.477Z,1.46
2022-12-05T13:00:14.959Z,1.42
2022-12-05T13:02:46.465Z,1.27
2022-12-05T13:05:24.831Z,1.32
2022-12-05T13:07:55.200Z,1.31
2022-12-05T13:10:27.997Z,1.32
2022-12-05T13:12:56.693Z,1.33
2022-12-05T13:15:30.744Z,1.42
2022-12-05T13:17:59.882Z,1.29
2022-12-05T13:20:29.271Z,1.14
2022-12-05T13:22:57.203Z,1.19
2022-12-05T13:25:29.403Z,1.20
2022-12-05T13:27:59.340Z,1.24
2022-12-05T13:30:29.521Z,1.22
2022-12-05T13:32:59.355Z,1.28
2022-12-05T13:35:49.639Z,1.26
2022-12-05T13:38:39.372Z,1.35
2022-12-05T13:41:24.646Z,1.41
2022-12-05T13:44:05.849Z,1.46
2022-12-05T13:46:36.978Z,1.60
2022-12-05T13:49:12.879Z,1.66
2022-12-05T13:51:45.694Z,1.70
2022-12-05T13:54:15.072Z,1.39
2022-12-05T13:56:51.120Z,1.38
2022-12-05T13:59:56.659Z,1.47
2022-12-05T14:02:51.285Z,1.51
2022-12-05T14:05:51.512Z,1.42
2022-12-05T14:08:48.919Z,1.29
2022-12-05T14:11:16.732Z,1.27
2022-12-05T14:13:45.993Z,1.29
2022-12-05T14:16:46.825Z,1.39
2022-12-05T14:19:38.203Z,1.34
2022-12-05T14:22:19.564Z,1.42
2022-12-05T14:24:54.524Z,1.43
2022-12-05T14:27:42.866Z,1.55
2022-12-05T14:30:24.088Z,1.34
2022-12-05T14:32:52.247Z,1.27
2022-12-05T14:35:24.656Z,1.38
2022-12-05T14:37:55.569Z,1.42
2022-12-05T14:40:29.916Z,1.30
2022-12-05T14:42:59.072Z,1.38
2022-12-05T14:45:35.190Z,1.50
2022-12-05T14:48:04.519Z,1.40
2022-12-05T14:50:44.432Z,1.39
2022-12-05T14:53:36.737Z,1.26
2022-12-05T14:56:18.086Z,1.18
2022-12-05T14:58:50.235Z,1.22
2022-12-05T15:01:21.113Z,1.21
2022-12-05T15:04:04.249Z,1.32
2022-12-05T15:06:33.526Z,1.32
2022-12-05T15:09:35.427Z,1.22
2022-12-05T15:11:54.543Z,1.22
2022-12-05T15:14:27.872Z,1.27
2022-12-05T15:17:00.837Z,1.39
2022-12-05T15:19:30.945Z,1.37
2022-12-05T15:22:01.485Z,1.39
2022-12-05T15:24:38.026Z,1.30
2022-12-05T15:27:06.607Z,1.21
2022-12-05T15:29:34.245Z,1.22
2022-12-05T15:32:05.932Z,1.14
2022-12-05T15:34:37.969Z,1.15
2022-12-05T15:37:12.283Z,1.11
2022-12-05T15:39:55.763Z,1.13
2022-12-05T15:42:29.334Z,1.18
2022-12-05T15:45:13.535Z,1.19
2022-12-05T15:47:41.543Z,1.10
2022-12-05T15:50:14.236Z,1.17
2022-12-05T15:52:44.174Z,1.21
2022-12-05T15:55:17.875Z,1.13
2022-12-05T15:57:48.034Z,1.19
2022-12-05T16:00:17.813Z,1.18
2022-12-05T16:02:47.996Z,1.15
2022-12-05T16:05:21.288Z,1.21
2022-12-05T16:07:50.167Z,1.19
2022-12-05T16:10:23.432Z,1.14
2022-12-05T16:12:54.167Z,1.14
2022-12-05T16:15:25.240Z,1.12
2022-12-05T16:17:54.944Z,1.05
2022-12-05T16:20:25.760Z,1.05
2022-12-05T16:22:55.280Z,1.03
2022-12-05T16:25:26.641Z,0.99
2022-12-05T16:28:04.035Z,0.96
2022-12-05T16:30:32.585Z,1.06
2022-12-05T16:33:03.506Z,0.97
2022-12-05T16:35:36.769Z,1.10
2022-12-05T16:38:10.817Z,1.06
2022-12-05T16:40:41.258Z,1.02
2022-12-05T16:43:19.717Z,1.17
2022-12-05T16:45:47.836Z,1.26
2022-12-05T16:48:18.125Z,1.09
2022-12-05T16:50:45.915Z,1.04
2022-12-05T16:53:19.403Z,1.10
2022-12-05T16:55:48.908Z,1.08
2022-12-05T16:58:24.117Z,1.07
2022-12-05T17:00:52.292Z,1.06
2022-12-05T17:03:33.904Z,1.08
2022-12-05T17:06:02.451Z,1.07
2022-12-05T17:08:30.064Z,1.11
2022-12-05T17:11:01.395Z,1.25
2022-12-05T17:13:29.317Z,1.15
2022-12-05T17:15:56.926Z,1.19
2022-12-05T17:18:30.978Z,1.19
2022-12-05T17:21:01.473Z,1.11
2022-12-05T17:23:29.217Z,1.08
2022-12-05T17:25:59.382Z,1.23
2022-12-05T17:28:27.334Z,1.14
2022-12-05T17:30:54.918Z,1.15
2022-12-05T17:33:22.478Z,1.12
2022-12-05T17:35:51.909Z,1.18
2022-12-05T17:38:19.477Z,1.11
2022-12-05T17:40:47.892Z,1.04
2022-12-05T17:43:23.033Z,1.00
2022-12-05T17:45:54.043Z,1.06
2022-12-05T17:48:22.140Z,0.99
2022-12-05T17:50:50.347Z,1.07
2022-12-05T17:53:19.958Z,1.09
2022-12-05T17:55:48.687Z,1.05
2022-12-05T17:58:18.422Z,0.96
2022-12-05T18:00:47.464Z,1.03
2022-12-05T18:03:17.213Z,0.98
2022-12-05T18:05:45.145Z,0.99
2022-12-05T18:08:13.755Z,1.02
2022-12-05T18:10:42.657Z,1.07
2022-12-05T18:13:10.860Z,1.13
2022-12-05T18:15:42.984Z,1.07
2022-12-05T18:18:15.574Z,1.04
2022-12-05T18:20:43.481Z,1.03
2022-12-05T18:23:11.203Z,1.09
2022-12-05T18:25:39.051Z,1.08
2022-12-05T18:28:06.912Z,1.06
2022-12-05T18:30:34.973Z,0.99
2022-12-05T18:33:03.966Z,0.98
2022-12-05T18:35:43.618Z,1.02
2022-12-05T18:38:12.301Z,1.04
2022-12-05T18:40:39.926Z,1.06
2022-12-05T18:43:07.751Z,1.11
2022-12-05T18:45:35.413Z,1.09
2022-12-05T18:48:31.001Z,1.08
2022-12-05T18:50:52.563Z,1.12
2022-12-05T18:53:20.325Z,1.12
2022-12-05T18:58:35.800Z,1.09
2022-12-05T19:01:08.288Z,1.10
2022-12-05T19:03:38.231Z,1.06
2022-12-05T19:06:13.619Z,1.09
2022-12-05T19:08:41.479Z,1.13
2022-12-05T19:11:09.148Z,1.22
2022-12-05T19:13:37.426Z,1.21
2022-12-05T19:16:06.005Z,1.31
2022-12-05T19:18:34.044Z,1.33
2022-12-05T19:21:03.475Z,1.40
2022-12-05T19:23:33.361Z,1.38
2022-12-05T19:26:01.511Z,1.45
2022-12-05T19:28:29.586Z,1.41
2022-12-05T19:31:01.302Z,1.49
2022-12-05T19:33:33.072Z,1.52
2022-12-05T19:36:07.544Z,1.58
2022-12-05T19:38:35.870Z,1.58
2022-12-05T19:41:03.560Z,1.54
2022-12-05T19:43:31.551Z,1.52
2022-12-05T19:45:59.902Z,1.45
2022-12-05T19:48:28.079Z,1.53
2022-12-05T19:50:56.569Z,1.60
2022-12-05T19:53:26.297Z,1.62
2022-12-05T19:55:53.923Z,1.52
2022-12-05T19:58:22.030Z,1.50
2022-12-05T20:00:52.424Z,1.57
2022-12-05T20:03:20.379Z,1.69
2022-12-05T20:05:57.358Z,1.56
2022-12-05T20:08:26.855Z,1.51
2022-12-05T20:10:54.453Z,1.51
2022-12-05T20:13:46.564Z,1.51
2022-12-05T20:16:12.765Z,1.51
2022-12-05T20:18:41.797Z,1.53
2022-12-05T20:21:11.674Z,1.51
2022-12-05T20:23:41.053Z,1.52
2022-12-05T20:26:11.410Z,1.49
2022-12-05T20:28:39.895Z,1.55
2022-12-05T20:31:08.890Z,1.55
2022-12-05T20:33:37.405Z,1.48
2022-12-05T20:36:06.623Z,1.53
2022-12-05T20:38:34.731Z,1.53
2022-12-05T20:41:06.520Z,1.50
2022-12-05T20:43:34.532Z,1.55
2022-12-05T20:46:05.661Z,1.58
2022-12-05T20:48:33.480Z,1.53
2022-12-05T20:51:05.341Z,1.56
2022-12-05T20:53:34.844Z,1.64
2022-12-05T20:56:09.409Z,1.54
2022-12-05T20:58:38.003Z,1.48
2022-12-05T21:01:07.435Z,1.55
2022-12-05T21:03:35.673Z,1.58
2022-12-05T21:06:08.310Z,1.68
2022-12-05T21:08:36.055Z,1.67
2022-12-05T21:11:03.824Z,1.70
2022-12-05T21:13:33.294Z,1.80
2022-12-05T21:16:03.609Z,1.66
2022-12-05T21:18:31.559Z,1.65
2022-12-05T21:21:00.220Z,1.75
2022-12-05T21:23:28.248Z,1.82
2022-12-05T21:25:56.037Z,1.75
2022-12-05T21:28:23.758Z,1.64
2022-12-05T21:30:52.905Z,1.55
2022-12-05T21:33:25.805Z,1.47
2022-12-05T21:35:56.530Z,1.53
2022-12-05T21:38:24.297Z,1.66
2022-12-05T21:40:52.038Z,1.67
2022-12-05T21:43:20.507Z,1.66
2022-12-05T21:45:53.933Z,1.57
2022-12-05T21:48:21.784Z,1.47
2022-12-05T21:50:49.882Z,1.50
2022-12-05T21:53:18.083Z,1.54
2022-12-05T21:55:46.095Z,1.56
2022-12-05T21:58:14.150Z,1.56
2022-12-05T22:00:41.898Z,1.53
2022-12-05T22:03:15.473Z,1.61
2022-12-05T22:05:43.477Z,1.60
2022-12-05T22:08:12.257Z,1.52
2022-12-05T22:10:40.047Z,1.47
2022-12-05T22:13:07.816Z,1.53
2022-12-05T22:15:35.652Z,1.63
2022-12-05T22:18:03.428Z,1.63
2022-12-05T22:20:32.473Z,1.59
2022-12-05T22:23:00.181Z,1.55
2022-12-05T22:25:27.943Z,1.60
2022-12-05T22:27:56.386Z,1.62
2022-12-05T22:30:24.179Z,1.58
2022-12-05T22:32:54.185Z,1.65
2022-12-05T22:35:21.923Z,1.57
2022-12-05T22:37:51.318Z,1.54
2022-12-05T22:40:19.192Z,1.58
2022-12-05T22:42:46.900Z,1.42
2022-12-05T22:45:14.702Z,1.52
2022-12-05T22:47:42.439Z,1.30
2022-12-05T22:50:10.750Z,1.28
2022-12-05T22:52:38.475Z,1.31
2022-12-05T22:55:08.680Z,1.43
2022-12-05T22:57:36.477Z,1.51
2022-12-05T23:00:05.394Z,1.52
2022-12-05T23:02:33.362Z,1.40
2022-12-05T23:05:01.254Z,1.51
2022-12-05T23:07:29.072Z,1.49
2022-12-05T23:09:57.147Z,1.54
2022-12-05T23:12:26.572Z,1.43
2022-12-05T23:14:54.414Z,1.27
2022-12-05T23:17:22.265Z,1.27
2022-12-05T23:19:50.163Z,1.13
2022-12-05T23:22:18.029Z,1.13
2022-12-05T23:24:45.875Z,1.17
2022-12-05T23:27:14.057Z,1.11
2022-12-05T23:29:43.248Z,1.12
2022-12-05T23:32:11.154Z,1.25
2022-12-05T23:34:39.024Z,1.30
2022-12-05T23:37:06.877Z,1.38
2022-12-05T23:39:34.828Z,1.42
2022-12-05T23:42:03.077Z,1.41
2022-12-05T23:44:30.919Z,1.42
2022-12-05T23:47:00.173Z,1.37
2022-12-05T23:49:28.078Z,1.26
2022-12-05T23:51:56.311Z,1.14
2022-12-05T23:54:24.206Z,1.03
2022-12-05T23:56:52.046Z,1.01
2022-12-05T23:59:19.888Z,1.02
